Time;durP1;ratioP1;P1;durP2;ratioP2;P2;SDS_P1;SDS_P2;PMS_P1;PMS_P2;Temp;Humidity;BMP_temperature;BMP_pressure;BME280_temperature;BME280_humidity;BME280_pressure;Samples;Min_cycle;Max_cycle;Signal;HPM_P1;HPM_P2
2023/06/08 00:00:29;;;;;;;11.00;10.10;;;;;;;13.78;100.00;96274.59;7398254;19;20380;-74
2023/06/08 00:02:57;;;;;;;11.93;10.93;;;;;;;13.90;100.00;96309.03;7401454;19;20360;-75
2023/06/08 00:05:25;;;;;;;12.77;11.73;;;;;;;13.75;100.00;96281.34;7407742;19;20404;-75
2023/06/08 00:07:56;;;;;;;13.13;11.77;;;;;;;13.72;100.00;96276.75;7409642;19;20389;-75
2023/06/08 00:10:23;;;;;;;12.07;11.07;;;;;;;13.78;100.00;96282.56;7407617;19;20381;-75
2023/06/08 00:12:52;;;;;;;11.97;11.00;;;;;;;13.72;100.00;96286.59;7432094;19;20420;-75
2023/06/08 00:15:19;;;;;;;12.20;11.10;;;;;;;13.38;100.00;96261.56;7436496;19;20397;-76
2023/06/08 00:17:46;;;;;;;13.33;12.13;;;;;;;13.63;100.00;96286.81;7432182;19;20767;-75
2023/06/08 00:20:13;;;;;;;11.07;10.17;;;;;;;13.48;100.00;96255.72;7406461;19;20372;-75
2023/06/08 00:22:42;;;;;;;12.07;10.87;;;;;;;13.51;100.00;96276.28;7406612;19;20376;-75
2023/06/08 00:25:10;;;;;;;11.03;10.23;;;;;;;13.52;100.00;96286.56;7405552;19;20478;-75
2023/06/08 00:27:36;;;;;;;11.57;10.67;;;;;;;13.18;100.00;96247.44;7408028;19;20432;-75
2023/06/08 00:30:04;;;;;;;12.63;11.53;;;;;;;12.81;100.00;96247.69;7405173;19;20380;-75
2023/06/08 00:32:31;;;;;;;10.47;9.70;;;;;;;12.92;100.00;96267.31;7406393;19;20451;-75
2023/06/08 00:34:59;;;;;;;11.40;9.43;;;;;;;12.90;100.00;96268.75;7403862;19;20561;-75
2023/06/08 00:37:26;;;;;;;11.10;10.00;;;;;;;12.88;100.00;96255.84;7405385;19;20376;-75
2023/06/08 00:39:53;;;;;;;11.10;10.13;;;;;;;13.16;100.00;96286.81;7403674;19;20373;-75
2023/06/08 00:42:22;;;;;;;13.07;10.67;;;;;;;13.10;100.00;96261.66;7402745;19;20430;-75
2023/06/08 00:44:49;;;;;;;11.63;10.80;;;;;;;13.40;100.00;96291.97;7401259;19;20444;-75
2023/06/08 00:47:16;;;;;;;11.97;11.03;;;;;;;13.33;100.00;96281.19;7404781;19;20412;-75
2023/06/08 00:49:45;;;;;;;10.60;9.60;;;;;;;13.35;100.00;96278.94;7402424;19;20381;-75
2023/06/08 00:52:12;;;;;;;11.87;10.67;;;;;;;12.97;100.00;96253.03;7404688;19;20408;-75
2023/06/08 00:54:40;;;;;;;13.67;10.47;;;;;;;12.84;100.00;96249.69;7400671;19;20914;-75
2023/06/08 00:57:08;;;;;;;10.90;10.00;;;;;;;13.02;100.00;96255.41;7403711;19;21313;-75
2023/06/08 00:59:35;;;;;;;11.57;10.67;;;;;;;13.28;100.00;96274.25;7401752;19;20379;-75
2023/06/08 01:02:04;;;;;;;12.10;11.00;;;;;;;13.30;100.00;96287.19;7403983;19;20384;-75
2023/06/08 01:04:31;;;;;;;11.13;10.20;;;;;;;13.21;100.00;96268.78;7399591;19;20418;-75
2023/06/08 01:07:28;;;;;;;12.17;10.33;;;;;;;12.87;100.00;96264.91;7403340;19;20381;-75
2023/06/08 01:10:13;;;;;;;10.20;9.40;;;;;;;12.84;100.00;96243.59;7399274;19;20384;-75
2023/06/08 01:12:46;;;;;;;10.77;9.97;;;;;;;12.84;100.00;96267.47;7399780;19;20376;-75
2023/06/08 01:15:27;;;;;;;10.47;9.60;;;;;;;12.61;100.00;96251.38;7399058;19;20408;-75
2023/06/08 01:17:58;;;;;;;12.03;10.90;;;;;;;12.97;100.00;96275.03;7400788;19;20368;-75
2023/06/08 01:20:36;;;;;;;10.67;9.77;;;;;;;12.99;100.00;96274.69;7399307;19;20385;-75
2023/06/08 01:23:34;;;;;;;11.00;10.00;;;;;;;13.02;100.00;96276.63;7401986;19;20395;-75
2023/06/08 01:26:03;;;;;;;11.90;10.93;;;;;;;12.87;100.00;96264.91;7402026;19;20436;-75
2023/06/08 01:28:31;;;;;;;9.93;9.03;;;;;;;12.77;100.00;96252.16;7398519;19;20393;-75
2023/06/08 01:30:58;;;;;;;10.63;9.80;;;;;;;12.74;100.00;96244.88;7400967;19;20734;-75
2023/06/08 01:33:29;;;;;;;10.90;10.00;;;;;;;12.82;100.00;96251.91;7398590;19;20464;-75
2023/06/08 01:36:05;;;;;;;10.80;9.93;;;;;;;12.98;100.00;96271.25;7400470;19;20415;-75
2023/06/08 01:39:06;;;;;;;10.97;10.27;;;;;;;12.84;100.00;96265.59;7399111;19;20385;-75
2023/06/08 01:41:43;;;;;;;10.83;9.93;;;;;;;12.17;100.00;96190.41;7398219;19;20389;-75
2023/06/08 01:44:15;;;;;;;10.80;10.00;;;;;;;12.62;100.00;96264.28;7398834;19;20400;-75
2023/06/08 01:46:53;;;;;;;10.17;9.37;;;;;;;12.55;100.00;96234.91;7399978;19;20385;-75
2023/06/08 01:49:21;;;;;;;10.67;9.73;;;;;;;12.57;100.00;96251.28;7396909;19;20914;-75
2023/06/08 01:51:48;;;;;;;10.73;9.73;;;;;;;12.39;100.00;96218.22;7399085;19;20352;-75
2023/06/08 01:54:15;;;;;;;11.10;10.10;;;;;;;12.42;100.00;96246.72;7396336;19;20401;-75
2023/06/08 01:56:42;;;;;;;10.90;10.00;;;;;;;12.21;100.00;96254.88;7399320;19;20424;-75
2023/06/08 01:59:09;;;;;;;10.90;10.00;;;;;;;12.02;100.00;96246.75;7398198;19;20424;-74
2023/06/08 02:01:36;;;;;;;10.17;9.37;;;;;;;11.77;100.00;96215.06;7400736;19;20380;-74
2023/06/08 02:04:04;;;;;;;10.03;9.23;;;;;;;12.04;100.00;96247.22;7398006;19;21004;-74
2023/06/08 02:06:31;;;;;;;10.90;10.00;;;;;;;12.03;100.00;96243.03;7401289;19;20375;-74
2023/06/08 02:08:59;;;;;;;11.27;10.10;;;;;;;11.74;100.00;96209.63;7398694;19;20376;-74
2023/06/08 02:11:27;;;;;;;9.67;8.87;;;;;;;12.04;100.00;96236.63;7399842;19;20369;-74
2023/06/08 02:13:54;;;;;;;10.40;9.60;;;;;;;11.80;100.00;96232.94;7397315;19;20428;-74
2023/06/08 02:16:22;;;;;;;11.90;10.80;;;;;;;12.03;100.00;96241.16;7403341;19;20401;-75
2023/06/08 02:18:50;;;;;;;10.70;9.90;;;;;;;11.47;100.00;96224.38;7403199;19;20359;-75
2023/06/08 02:21:18;;;;;;;10.27;9.47;;;;;;;11.59;100.00;96239.47;7401071;19;20372;-74
2023/06/08 02:23:45;;;;;;;10.00;9.30;;;;;;;11.43;100.00;96223.50;7396515;19;20437;-75
2023/06/08 02:26:13;;;;;;;9.70;9.00;;;;;;;11.60;100.00;96238.38;7396661;19;20371;-75
2023/06/08 02:28:41;;;;;;;11.53;10.53;;;;;;;11.46;100.00;96205.06;7398611;19;20340;-75
2023/06/08 02:31:08;;;;;;;11.07;10.27;;;;;;;11.81;100.00;96231.84;7395139;19;20432;-75
2023/06/08 02:33:35;;;;;;;10.43;9.37;;;;;;;11.94;100.00;96259.06;7396733;19;20432;-75
2023/06/08 02:36:02;;;;;;;10.67;9.87;;;;;;;12.15;100.00;96256.22;7399817;19;20369;-75
2023/06/08 02:38:30;;;;;;;10.00;9.30;;;;;;;11.90;100.00;96233.59;7397071;19;20372;-75
2023/06/08 02:40:57;;;;;;;10.10;9.40;;;;;;;11.86;100.00;96232.69;7398577;19;20375;-75
2023/06/08 02:43:24;;;;;;;11.50;10.47;;;;;;;11.94;100.00;96251.13;7396269;19;20442;-75
2023/06/08 02:45:51;;;;;;;11.13;10.23;;;;;;;12.14;100.00;96259.97;7398564;19;20395;-75
2023/06/08 02:48:20;;;;;;;9.43;8.73;;;;;;;11.93;100.00;96248.81;7396764;19;20777;-76
2023/06/08 02:50:46;;;;;;;11.93;10.70;;;;;;;11.41;100.00;96245.03;7396776;19;20932;-75
2023/06/08 02:53:13;;;;;;;10.60;9.70;;;;;;;11.25;100.00;96218.47;7396332;19;20425;-75
2023/06/08 02:55:40;;;;;;;10.73;9.77;;;;;;;11.17;100.00;96235.22;7398031;19;20904;-75
2023/06/08 02:58:14;;;;;;;11.10;10.20;;;;;;;11.41;100.00;96234.44;7397009;19;20408;-75
2023/06/08 03:00:40;;;;;;;9.93;9.03;;;;;;;11.69;100.00;96241.66;7395144;19;20402;-75
2023/06/08 03:03:23;;;;;;;10.37;9.47;;;;;;;11.62;100.00;96220.25;7396845;19;20443;-75
2023/06/08 03:05:59;;;;;;;9.67;8.67;;;;;;;11.74;100.00;96210.41;7396114;19;20368;-75
2023/06/08 03:08:32;;;;;;;11.50;10.60;;;;;;;11.54;100.00;96198.13;7397540;19;20412;-75
2023/06/08 03:11:02;;;;;;;10.60;9.70;;;;;;;11.71;100.00;96250.81;7394450;19;20404;-75
2023/06/08 03:13:29;;;;;;;10.93;10.13;;;;;;;11.47;100.00;96222.50;7396570;19;20436;-75
2023/06/08 03:15:56;;;;;;;10.53;9.73;;;;;;;11.38;100.00;96242.28;7395914;19;20392;-75
2023/06/08 03:18:24;;;;;;;11.47;10.57;;;;;;;11.43;100.00;96249.97;7397393;19;20977;-75
2023/06/08 03:20:51;;;;;;;10.47;9.57;;;;;;;11.38;100.00;96202.56;7397153;19;20364;-75
2023/06/08 03:23:21;;;;;;;13.43;10.07;;;;;;;11.34;100.00;96212.25;7393588;19;20412;-75
2023/06/08 03:25:51;;;;;;;11.13;10.13;;;;;;;11.49;100.00;96233.53;7396223;19;20393;-75
2023/06/08 03:28:18;;;;;;;10.17;9.37;;;;;;;11.39;100.00;96199.59;7394448;19;20750;-75
2023/06/08 03:30:46;;;;;;;10.93;10.03;;;;;;;11.52;100.00;96213.56;7394748;19;20419;-75
2023/06/08 03:33:16;;;;;;;11.17;10.27;;;;;;;11.54;100.00;96235.19;7393964;19;20507;-75
2023/06/08 03:35:49;;;;;;;10.47;9.63;;;;;;;11.49;100.00;96233.53;7396177;19;20907;-75
2023/06/08 03:38:22;;;;;;;11.23;10.37;;;;;;;11.35;100.00;96219.91;7394260;19;20457;-75
2023/06/08 03:40:50;;;;;;;13.07;10.97;;;;;;;11.50;100.00;96231.66;7396175;19;20376;-75
2023/06/08 03:43:19;;;;;;;10.93;9.67;;;;;;;11.58;100.00;96227.34;7394474;19;20440;-75
2023/06/08 03:45:47;;;;;;;9.60;8.80;;;;;;;11.58;100.00;96228.09;7396253;19;20380;-75
2023/06/08 03:48:15;;;;;;;9.93;9.03;;;;;;;11.20;100.00;96212.59;7394611;19;20456;-75
2023/06/08 03:50:43;;;;;;;9.53;8.73;;;;;;;10.98;100.00;96213.84;7394928;19;20380;-75
2023/06/08 03:53:12;;;;;;;10.70;9.80;;;;;;;11.41;100.00;96245.03;7394293;19;20441;-75
2023/06/08 03:55:39;;;;;;;12.03;10.33;;;;;;;11.41;100.00;96215.13;7397662;19;20424;-75
2023/06/08 03:58:07;;;;;;;10.27;9.43;;;;;;;11.58;100.00;96230.75;7394550;19;20364;-75
2023/06/08 04:00:34;;;;;;;12.33;11.13;;;;;;;11.77;100.00;96244.19;7395879;19;20405;-75
2023/06/08 04:03:01;;;;;;;13.27;11.20;;;;;;;11.77;100.00;96246.06;7394305;19;20440;-75
2023/06/08 04:05:28;;;;;;;11.33;10.43;;;;;;;11.83;100.00;96237.56;7396663;19;20384;-75
2023/06/08 04:07:55;;;;;;;10.77;9.67;;;;;;;11.76;100.00;96218.81;7394391;19;20376;-75
2023/06/08 04:10:23;;;;;;;11.90;10.80;;;;;;;12.01;100.00;96237.28;7395036;19;20652;-75
2023/06/08 04:12:51;;;;;;;9.80;9.10;;;;;;;12.03;100.00;96245.69;7395522;19;20340;-75
2023/06/08 04:15:18;;;;;;;14.63;11.73;;;;;;;11.99;100.00;96247.44;7393547;19;20430;-75
2023/06/08 04:17:48;;;;;;;11.00;10.10;;;;;;;11.88;100.00;96217.22;7395000;19;20372;-75
2023/06/08 04:20:19;;;;;;;10.97;9.97;;;;;;;11.92;100.00;96216.25;7393255;19;20401;-75
2023/06/08 04:22:46;;;;;;;10.90;9.97;;;;;;;11.98;100.00;96230.78;7394404;19;20727;-75
2023/06/08 04:25:15;;;;;;;9.83;9.13;;;;;;;12.13;100.00;96238.00;7393254;19;20884;-75
2023/06/08 04:27:43;;;;;;;11.17;10.17;;;;;;;12.23;100.00;96252.66;7395167;19;20977;-75
2023/06/08 04:30:11;;;;;;;11.87;10.87;;;;;;;11.88;100.00;96249.03;7392224;19;20376;-75
2023/06/08 04:32:38;;;;;;;11.33;10.50;;;;;;;11.85;100.00;96231.94;7394738;19;20472;-75
2023/06/08 04:35:05;;;;;;;12.40;11.30;;;;;;;12.22;100.00;96247.69;7393462;19;20408;-75
2023/06/08 04:37:35;;;;;;;12.87;10.60;;;;;;;11.73;100.00;96181.59;7394937;19;20396;-75
2023/06/08 04:40:04;;;;;;;11.00;9.93;;;;;;;12.36;100.00;96221.56;7394253;19;20368;-75
2023/06/08 04:42:38;;;;;;;9.47;8.77;;;;;;;12.67;100.00;96229.53;7395849;19;20728;-75
2023/06/08 04:45:08;;;;;;;10.13;9.33;;;;;;;12.84;100.00;96231.09;7393803;19;20392;-75
2023/06/08 04:47:40;;;;;;;11.63;10.63;;;;;;;12.85;100.00;96240.59;7392525;19;20768;-75
2023/06/08 04:50:07;;;;;;;11.80;10.60;;;;;;;13.20;100.00;96245.22;7396611;19;20392;-75
2023/06/08 04:52:40;;;;;;;12.07;10.80;;;;;;;13.09;100.00;96254.78;7399613;19;20398;-75
2023/06/08 04:55:12;;;;;;;12.70;11.60;;;;;;;13.37;100.00;96260.03;7402002;19;20369;-75
2023/06/08 04:57:41;;;;;;;11.27;10.43;;;;;;;13.49;100.00;96236.78;7399746;19;20392;-75
2023/06/08 05:00:09;;;;;;;10.93;10.03;;;;;;;13.53;100.00;96227.00;7400936;19;21041;-75
2023/06/08 05:02:37;;;;;;;11.90;10.90;;;;;;;13.96;100.00;96265.09;7399899;19;20401;-75
2023/06/08 05:05:05;;;;;;;12.00;11.10;;;;;;;13.80;100.00;96235.91;7401810;19;20428;-76
2023/06/08 05:07:33;;;;;;;12.83;11.73;;;;;;;14.03;100.00;96264.47;7399832;19;20938;-76
2023/06/08 05:10:03;;;;;;;11.30;10.50;;;;;;;13.89;100.00;96243.69;7400866;19;20369;-76
2023/06/08 05:12:30;;;;;;;11.50;10.60;;;;;;;14.16;100.00;96260.56;7400846;19;20360;-76
2023/06/08 05:14:58;;;;;;;11.30;10.40;;;;;;;14.08;100.00;96246.34;7430260;19;20484;-75
2023/06/08 05:17:25;;;;;;;12.03;10.93;;;;;;;14.24;100.00;96248.16;7435750;19;20409;-75
2023/06/08 05:19:52;;;;;;;11.63;10.73;;;;;;;14.40;100.00;96227.56;7432676;19;20385;-75
2023/06/08 05:22:19;;;;;;;12.87;11.73;;;;;;;14.74;100.00;96258.63;7405146;19;20373;-76
2023/06/08 05:24:46;;;;;;;13.23;12.20;;;;;;;14.60;100.00;96241.63;7398870;19;20858;-76
2023/06/08 05:27:16;;;;;;;11.73;10.83;;;;;;;14.83;100.00;96244.31;7399916;19;20416;-76
2023/06/08 05:29:43;;;;;;;12.37;11.47;;;;;;;14.96;100.00;96258.97;7401743;19;20392;-76
2023/06/08 05:32:10;;;;;;;12.33;11.37;;;;;;;15.19;100.00;96241.06;7399051;19;20455;-76
2023/06/08 05:34:37;;;;;;;12.43;11.43;;;;;;;15.51;100.00;96262.88;7396324;19;20434;-76
2023/06/08 05:37:04;;;;;;;13.23;12.07;;;;;;;15.47;100.00;96242.59;7400662;19;21009;-76
2023/06/08 05:39:31;;;;;;;13.03;12.03;;;;;;;15.55;100.00;96247.69;7399147;19;20367;-76
2023/06/08 05:41:58;;;;;;;11.70;10.77;;;;;;;15.49;100.00;96237.69;7399230;19;20412;-76
2023/06/08 05:44:25;;;;;;;11.70;10.80;;;;;;;15.61;100.00;96253.50;7395410;19;20456;-76
2023/06/08 05:46:52;;;;;;;12.00;10.97;;;;;;;15.63;100.00;96228.03;7401994;19;20345;-76
2023/06/08 05:49:19;;;;;;;12.77;11.80;;;;;;;15.91;100.00;96264.19;7399282;19;20441;-76
2023/06/08 05:51:46;;;;;;;12.87;11.87;;;;;;;15.93;100.00;96262.69;7397698;19;20406;-76
2023/06/08 05:54:13;;;;;;;13.20;12.00;;;;;;;16.12;100.00;96259.09;7395661;19;20417;-76
2023/06/08 05:56:40;;;;;;;11.73;10.63;;;;;;;16.31;100.00;96250.19;7398631;19;20347;-76
2023/06/08 05:59:07;;;;;;;18.13;15.03;;;;;;;16.47;100.00;96228.59;7397475;19;20417;-76
2023/06/08 06:01:34;;;;;;;13.27;12.30;;;;;;;16.94;100.00;96253.84;7398224;19;20915;-76
2023/06/08 06:04:01;;;;;;;13.17;11.97;;;;;;;17.20;100.00;96271.63;7395971;19;20433;-76
2023/06/08 06:06:29;;;;;;;14.80;13.50;;;;;;;17.21;100.00;96257.13;7398843;19;20353;-76
2023/06/08 06:08:55;;;;;;;12.50;11.50;;;;;;;17.54;100.00;96282.94;7398535;19;20715;-76
2023/06/08 06:11:22;;;;;;;12.80;11.90;;;;;;;17.57;100.00;96261.56;7397261;19;20382;-75
2023/06/08 06:13:49;;;;;;;14.33;13.23;;;;;;;17.95;100.00;96283.59;7395603;19;21019;-75
2023/06/08 06:16:16;;;;;;;13.03;12.03;;;;;;;18.18;100.00;96286.78;7398347;19;20953;-75
2023/06/08 06:18:46;;;;;;;14.03;12.90;;;;;;;17.96;100.00;96279.78;7398825;19;20889;-75
2023/06/08 06:21:14;;;;;;;13.20;12.10;;;;;;;18.04;100.00;96281.34;7398245;19;20397;-75
2023/06/08 06:23:41;;;;;;;13.57;12.57;;;;;;;18.12;100.00;96268.75;7397583;19;20429;-76
2023/06/08 06:26:08;;;;;;;12.27;11.27;;;;;;;18.54;100.00;96276.16;7400838;19;20353;-76
2023/06/08 06:28:35;;;;;;;11.70;10.80;;;;;;;18.89;100.00;96278.19;7396817;19;20401;-76
2023/06/08 06:31:04;;;;;;;11.30;10.40;;;;;;;19.18;100.00;96278.97;7397651;19;20367;-76
2023/06/08 06:33:31;;;;;;;12.20;11.00;;;;;;;18.97;100.00;96277.06;7395810;19;20405;-76
2023/06/08 06:35:58;;;;;;;10.03;9.23;;;;;;;19.18;100.00;96269.00;7398248;19;20393;-76
2023/06/08 06:38:25;;;;;;;12.10;11.10;;;;;;;19.27;100.00;96265.94;7396106;19;20369;-76
2023/06/08 06:40:52;;;;;;;12.03;11.07;;;;;;;19.31;100.00;96272.06;7398404;19;20710;-76
2023/06/08 06:43:24;;;;;;;10.40;9.47;;;;;;;19.48;100.00;96278.56;7403708;19;20431;-76
2023/06/08 06:46:12;;;;;;;9.43;8.57;;;;;;;19.23;100.00;96265.19;7396583;19;20354;-76
2023/06/08 06:48:39;;;;;;;10.53;9.70;;;;;;;19.66;100.00;96284.72;7407044;19;20406;-76
2023/06/08 06:51:06;;;;;;;10.10;9.40;;;;;;;19.74;100.00;96291.56;7395674;19;20427;-76
2023/06/08 06:53:33;;;;;;;10.20;9.27;;;;;;;19.61;100.00;96273.59;7393329;19;20414;-76
2023/06/08 06:56:00;;;;;;;10.60;9.67;;;;;;;19.85;100.00;96272.00;7395704;19;20371;-76
2023/06/08 06:58:27;;;;;;;10.17;9.37;;;;;;;20.10;100.00;96271.94;7397356;19;20760;-76
2023/06/08 07:00:55;;;;;;;10.67;9.70;;;;;;;20.30;100.00;96278.41;7395791;19;20389;-76
2023/06/08 07:03:26;;;;;;;10.90;10.10;;;;;;;20.29;100.00;96268.78;7398438;19;20424;-76
2023/06/08 07:05:57;;;;;;;9.30;8.60;;;;;;;20.17;100.00;96271.94;7397808;19;20363;-76
2023/06/08 07:08:28;;;;;;;10.60;9.60;;;;;;;20.12;100.00;96275.00;7398753;19;20891;-77
2023/06/08 07:10:55;;;;;;;10.40;9.40;;;;;;;19.94;100.00;96257.03;7395790;19;20375;-77
2023/06/08 07:13:22;;;;;;;8.80;8.00;;;;;;;20.03;100.00;96289.63;7397063;19;20764;-77
2023/06/08 07:15:48;;;;;;;9.73;8.90;;;;;;;20.70;100.00;96279.75;7396737;19;20369;-77
2023/06/08 07:18:16;;;;;;;9.00;8.20;;;;;;;20.89;100.00;96270.41;7399889;19;20382;-77
2023/06/08 07:20:43;;;;;;;9.33;8.53;;;;;;;21.04;100.00;96292.56;7397051;19;20415;-78
2023/06/08 07:23:10;;;;;;;10.43;9.53;;;;;;;20.87;100.00;96291.53;7400220;19;20387;-77
2023/06/08 07:25:57;;;;;;;9.57;8.87;;;;;;;20.94;100.00;96283.41;7398191;19;20350;-77
2023/06/08 07:28:46;;;;;;;11.50;9.47;;;;;;;21.00;100.00;96270.34;7396113;19;20890;-77
2023/06/08 07:31:13;;;;;;;11.10;9.47;;;;;;;20.89;100.00;96276.53;7397678;19;20387;-78
2023/06/08 07:33:40;;;;;;;9.40;8.70;;;;;;;20.95;100.00;96274.19;7396190;19;20497;-77
2023/06/08 07:36:06;;;;;;;11.50;9.43;;;;;;;20.83;100.00;96280.03;7397830;19;20374;-77
2023/06/08 07:38:33;;;;;;;9.97;9.27;;;;;;;21.06;100.00;96276.81;7396392;19;20972;-77
2023/06/08 07:41:00;;;;;;;9.90;9.10;;;;;;;21.70;100.00;96285.13;7398311;19;20349;-77
2023/06/08 07:43:27;;;;;;;9.00;8.10;;;;;;;21.87;100.00;96282.66;7395463;19;20400;-77
2023/06/08 07:45:55;;;;;;;10.03;9.23;;;;;;;21.67;100.00;96283.25;7398263;19;21447;-77
2023/06/08 07:48:22;;;;;;;10.80;9.07;;;;;;;21.64;100.00;96267.13;7396131;19;20355;-77
2023/06/08 07:50:49;;;;;;;9.43;8.60;;;;;;;22.05;100.00;96285.94;7397640;19;20399;-77
2023/06/08 07:53:17;;;;;;;9.40;8.60;;;;;;;22.19;100.00;96301.19;7396872;19;20396;-77
2023/06/08 07:55:44;;;;;;;9.43;8.50;;;;;;;22.32;100.00;96278.72;7395802;19;20365;-77
2023/06/08 07:58:11;;;;;;;8.43;7.90;;;;;;;22.32;100.00;96288.72;7394883;19;20344;-76
2023/06/08 08:00:39;;;;;;;8.33;7.73;;;;;;;22.44;100.00;96288.19;7394680;19;20900;-76
2023/06/08 08:03:06;;;;;;;9.07;8.27;;;;;;;22.22;100.00;96268.81;7394542;19;20533;-76
2023/06/08 08:05:34;;;;;;;9.17;8.47;;;;;;;22.55;100.00;96279.94;7393253;19;20387;-76
2023/06/08 08:08:01;;;;;;;9.30;8.60;;;;;;;21.66;100.00;96283.66;7396309;19;20351;-76
2023/06/08 08:10:28;;;;;;;9.33;8.53;;;;;;;21.73;100.00;96260.09;7393506;19;20417;-76
2023/06/08 08:12:55;;;;;;;8.53;7.83;;;;;;;21.51;100.00;96280.31;7396258;19;20403;-76
2023/06/08 08:15:22;;;;;;;8.97;8.10;;;;;;;21.79;100.00;96280.06;7394756;19;20916;-76
2023/06/08 08:17:49;;;;;;;9.23;8.50;;;;;;;22.50;100.00;96286.56;7394614;19;20361;-76
2023/06/08 08:20:17;;;;;;;8.90;8.30;;;;;;;21.41;100.00;96249.66;7394626;19;20353;-76
2023/06/08 08:22:44;;;;;;;10.20;9.40;;;;;;;21.14;100.00;96262.16;7396430;19;20704;-76
2023/06/08 08:25:10;;;;;;;10.40;9.50;;;;;;;21.40;100.00;96272.34;7400409;19;20384;-76
2023/06/08 08:27:37;;;;;;;9.83;9.03;;;;;;;21.31;100.00;96263.19;7402474;19;20380;-76
2023/06/08 08:30:05;;;;;;;9.10;8.43;;;;;;;21.20;100.00;96266.69;7400976;19;20407;-76
2023/06/08 08:32:33;;;;;;;7.70;7.20;;;;;;;22.08;100.00;96267.06;7400148;19;20360;-76
2023/06/08 08:35:00;;;;;;;12.30;7.43;;;;;;;22.45;100.00;96280.88;7400816;19;20388;-76
2023/06/08 08:37:27;;;;;;;8.30;7.60;;;;;;;22.55;100.00;96279.94;7401784;19;20399;-76
2023/06/08 08:39:54;;;;;;;8.93;8.23;;;;;;;22.86;100.00;96276.09;7400846;19;20351;-76
2023/06/08 08:42:24;;;;;;;9.00;8.30;;;;;;;22.50;100.00;96278.47;7401804;19;20920;-76
2023/06/08 08:44:54;;;;;;;9.40;8.67;;;;;;;21.80;100.00;96240.44;7399351;19;20927;-77
2023/06/08 08:47:29;;;;;;;8.37;7.77;;;;;;;21.91;100.00;96246.47;7403487;19;20729;-76
2023/06/08 08:50:06;;;;;;;8.77;8.17;;;;;;;22.21;100.00;96259.22;7400600;19;20407;-76
2023/06/08 08:52:34;;;;;;;7.57;6.97;;;;;;;22.12;100.00;96267.00;7397684;19;20673;-76
2023/06/08 08:55:02;;;;;;;7.90;7.20;;;;;;;22.52;100.00;96240.34;7401373;19;20348;-76
2023/06/08 08:57:30;;;;;;;7.73;7.13;;;;;;;23.24;100.00;96257.03;7399121;19;20736;-76
2023/06/08 08:59:58;;;;;;;9.80;8.90;;;;;;;23.25;100.00;96280.13;7401184;19;20389;-76
2023/06/08 09:02:26;;;;;;;9.43;7.97;;;;;;;23.22;100.00;96243.16;7405658;19;20375;-76
2023/06/08 09:04:56;;;;;;;9.13;8.27;;;;;;;23.84;100.00;96272.19;7412272;19;20447;-76
2023/06/08 09:07:24;;;;;;;7.40;6.80;;;;;;;24.53;98.29;96277.03;7399108;19;20385;-77
2023/06/08 09:10:19;;;;;;;7.53;6.83;;;;;;;23.83;96.65;96269.91;7402347;19;20352;-76
2023/06/08 09:12:53;;;;;;;7.73;7.13;;;;;;;23.17;98.88;96265.97;7397755;19;20436;-76
2023/06/08 09:15:34;;;;;;;8.83;7.53;;;;;;;22.49;100.00;96260.03;7400332;19;20720;-76
2023/06/08 09:18:15;;;;;;;7.40;6.80;;;;;;;22.05;100.00;96234.78;7400595;19;20708;-76
2023/06/08 09:20:42;;;;;;;8.20;7.20;;;;;;;21.90;100.00;96261.06;7399843;19;20380;-76
2023/06/08 09:23:26;;;;;;;8.30;7.70;;;;;;;21.58;100.00;96264.09;7401779;19;20408;-76
2023/06/08 09:25:53;;;;;;;8.00;7.30;;;;;;;21.40;100.00;96237.38;7399973;19;20351;-76
2023/06/08 09:28:26;;;;;;;8.60;7.90;;;;;;;21.76;100.00;96253.91;7398240;19;20395;-76
2023/06/08 09:30:57;;;;;;;9.83;7.23;;;;;;;21.57;100.00;96246.44;7400109;19;20385;-76
2023/06/08 09:33:26;;;;;;;7.90;7.30;;;;;;;21.46;100.00;96243.84;7398086;19;20383;-76
2023/06/08 09:35:56;;;;;;;7.67;7.07;;;;;;;21.26;100.00;96250.94;7398788;19;20342;-76
2023/06/08 09:38:26;;;;;;;6.47;6.07;;;;;;;21.09;100.00;96246.44;7400150;19;20442;-78
2023/06/08 09:41:17;;;;;;;6.47;6.00;;;;;;;21.03;100.00;96251.47;7403119;19;20352;-77
2023/06/08 09:43:45;;;;;;;7.10;6.50;;;;;;;20.87;100.00;96222.41;7400891;19;20434;-77
2023/06/08 09:46:16;;;;;;;7.70;7.20;;;;;;;21.12;100.00;96237.59;7399616;19;20373;-77
2023/06/08 09:48:51;;;;;;;6.77;6.20;;;;;;;21.12;100.00;96224.91;7401893;19;20374;-78
2023/06/08 09:51:22;;;;;;;7.57;6.70;;;;;;;20.86;100.00;96204.78;7402294;19;20386;-77
2023/06/08 09:53:57;;;;;;;8.43;7.30;;;;;;;21.12;100.00;96232.22;7400636;19;20435;-77
2023/06/08 09:56:27;;;;;;;7.63;7.03;;;;;;;20.94;100.00;96206.22;7403049;19;20344;-77
2023/06/08 09:59:10;;;;;;;8.90;7.40;;;;;;;20.95;100.00;96199.69;7402738;19;20417;-77
2023/06/08 10:01:52;;;;;;;7.83;7.33;;;;;;;21.51;100.00;96226.50;7402091;19;20676;-77
2023/06/08 10:04:41;;;;;;;7.47;6.77;;;;;;;21.59;100.00;96216.44;7397711;19;20506;-77
2023/06/08 10:07:15;;;;;;;6.93;6.43;;;;;;;21.88;100.00;96179.19;7398261;19;20354;-77
2023/06/08 10:09:44;;;;;;;7.70;7.00;;;;;;;22.47;100.00;96235.41;7399519;19;20346;-77
2023/06/08 10:12:14;;;;;;;7.53;7.00;;;;;;;22.11;100.00;96195.47;7397274;19;20879;-77
2023/06/08 10:14:42;;;;;;;7.87;7.20;;;;;;;22.00;100.00;96202.88;7398252;19;20437;-78
2023/06/08 10:17:10;;;;;;;7.07;6.57;;;;;;;21.90;100.00;96228.00;7400263;19;20811;-77
2023/06/08 10:19:37;;;;;;;8.03;7.37;;;;;;;21.95;100.00;96214.13;7400939;19;20376;-77
2023/06/08 10:22:05;;;;;;;6.90;6.30;;;;;;;21.70;100.00;96214.38;7399167;19;20374;-77
2023/06/08 10:24:32;;;;;;;10.30;7.20;;;;;;;21.68;100.00;96198.66;7398452;19;20417;-77
2023/06/08 10:27:10;;;;;;;7.07;6.47;;;;;;;21.86;100.00;96216.50;7398033;19;20382;-78
2023/06/08 10:29:37;;;;;;;7.77;7.17;;;;;;;21.76;100.00;96218.91;7401857;19;20378;-77
2023/06/08 10:32:09;;;;;;;6.77;6.27;;;;;;;21.69;100.00;96208.25;7399414;19;20361;-78
2023/06/08 10:34:39;;;;;;;7.87;7.07;;;;;;;21.60;100.00;96186.41;7398850;19;20407;-77
2023/06/08 10:37:26;;;;;;;6.73;6.17;;;;;;;21.71;100.00;96195.16;7398676;19;20908;-77
2023/06/08 10:39:54;;;;;;;7.40;6.80;;;;;;;21.37;100.00;96179.00;7397781;19;20378;-78
2023/06/08 10:42:21;;;;;;;7.57;6.83;;;;;;;21.52;100.00;96195.75;7399712;19;20381;-77
2023/06/08 10:44:55;;;;;;;5.67;5.27;;;;;;;21.90;100.00;96199.16;7395270;19;20421;-77
2023/06/08 10:47:22;;;;;;;6.20;5.70;;;;;;;21.73;100.00;96146.28;7396482;19;20922;-77
2023/06/08 10:49:57;;;;;;;7.40;6.80;;;;;;;22.17;100.00;96185.78;7398588;19;20400;-77
2023/06/08 10:52:25;;;;;;;7.27;6.30;;;;;;;22.13;100.00;96183.13;7399913;19;20909;-78
2023/06/08 10:55:08;;;;;;;6.97;6.37;;;;;;;22.26;100.00;96186.03;7397267;19;20435;-78
2023/06/08 10:57:49;;;;;;;7.30;6.60;;;;;;;22.55;100.00;96185.63;7399549;19;20373;-78
2023/06/08 11:00:27;;;;;;;11.30;7.33;;;;;;;22.42;97.44;96191.56;7404624;19;20428;-78
2023/06/08 11:03:08;;;;;;;7.20;6.67;;;;;;;22.23;99.63;96184.16;7399064;19;20533;-78
2023/06/08 11:05:37;;;;;;;6.80;6.30;;;;;;;22.06;100.00;96169.75;7397959;19;20410;-78
2023/06/08 11:08:07;;;;;;;7.13;6.53;;;;;;;22.27;99.16;96168.69;7398455;19;20922;-77
2023/06/08 11:10:36;;;;;;;7.10;6.50;;;;;;;22.20;99.48;96163.41;7398539;19;20349;-78
2023/06/08 11:13:07;;;;;;;6.77;6.20;;;;;;;22.19;99.77;96159.19;7397979;19;20480;-77
2023/06/08 11:15:42;;;;;;;8.50;7.77;;;;;;;22.01;100.00;96156.69;7398729;19;20427;-77
2023/06/08 11:18:10;;;;;;;8.03;7.43;;;;;;;21.86;100.00;96152.66;7397782;19;20729;-77
2023/06/08 11:20:42;;;;;;;7.67;6.97;;;;;;;21.68;100.00;96166.34;7397328;19;20408;-76
2023/06/08 11:23:11;;;;;;;13.60;9.10;;;;;;;20.89;100.00;96170.94;7394828;19;20407;-76
2023/06/08 11:25:39;;;;;;;11.30;7.17;;;;;;;19.93;100.00;96140.09;7395712;19;20388;-75
2023/06/08 11:28:11;;;;;;;7.70;7.00;;;;;;;19.74;100.00;96145.94;7396784;19;20379;-75